DLH274S EGKK-EDDF
Flight info
| Callsign | DLH274S |
|---|---|
| Flight time | 1h 5m |
| Altitude | 35000 |
| Route | DVR UL9 KONAN UL607 KOK DCT REMBA UL607 SPI T180 NIVNU/N0411F230 T847 IMCOM IMCOM1B |
| Aircraft | A320/M-SDE3FGHIRWY/LB1 |
Departure
| Time | 2026-05-05 10:45 |
|---|---|
| Airport | London Gatwick Airport (EGKK) |
Arrival
| Time | 2026-05-05 11:51 |
|---|---|
| Airport | Frankfurt Main Airport (EDDF) |
| Time | Latitude | Longitude | Altitude | Speed | Heading |
|---|---|---|---|---|---|
| 2026-05-05 10:15 | 51.15608 | -0.16676 | 204 ft | 0 kts | 167° |
| 2026-05-05 10:27 | 51.15609 | -0.16676 | 204 ft | 0 kts | 167° |
| 2026-05-05 10:30 | 51.15615 | -0.16679 | 204 ft | 2 kts | 168° |
| 2026-05-05 10:30 | 51.15635 | -0.16684 | 204 ft | 3 kts | 173° |
| 2026-05-05 10:30 | 51.15654 | -0.16687 | 211 ft | 3 kts | 181° |
| 2026-05-05 10:30 | 51.15674 | -0.16684 | 208 ft | 3 kts | 197° |
| 2026-05-05 10:31 | 51.15691 | -0.16672 | 214 ft | 3 kts | 234° |
| 2026-05-05 10:31 | 51.15696 | -0.16658 | 214 ft | 1 kts | 258° |
| 2026-05-05 10:31 | 51.15696 | -0.16653 | 214 ft | 2 kts | 258° |
| 2026-05-05 10:35 | 51.15696 | -0.16654 | 214 ft | 1 kts | 258° |
| 2026-05-05 10:35 | 51.15686 | -0.16726 | 211 ft | 8 kts | 257° |
| 2026-05-05 10:35 | 51.15674 | -0.16812 | 212 ft | 8 kts | 257° |
| 2026-05-05 10:36 | 51.15664 | -0.16890 | 208 ft | 7 kts | 257° |
| 2026-05-05 10:36 | 51.15654 | -0.16959 | 206 ft | 6 kts | 257° |
| 2026-05-05 10:36 | 51.15646 | -0.17019 | 209 ft | 5 kts | 257° |
| 2026-05-05 10:36 | 51.15637 | -0.17084 | 204 ft | 11 kts | 257° |
| 2026-05-05 10:37 | 51.15615 | -0.17231 | 214 ft | 14 kts | 256° |
| 2026-05-05 10:37 | 51.15593 | -0.17372 | 210 ft | 13 kts | 257° |
| 2026-05-05 10:37 | 51.15549 | -0.17467 | 209 ft | 10 kts | 229° |
| 2026-05-05 10:37 | 51.15530 | -0.17580 | 209 ft | 12 kts | 261° |
| 2026-05-05 10:38 | 51.15512 | -0.17695 | 206 ft | 10 kts | 259° |
| 2026-05-05 10:38 | 51.15498 | -0.17801 | 204 ft | 9 kts | 256° |
| 2026-05-05 10:38 | 51.15479 | -0.17939 | 214 ft | 21 kts | 258° |
| 2026-05-05 10:38 | 51.15436 | -0.18139 | 213 ft | 16 kts | 216° |
| 2026-05-05 10:39 | 51.15337 | -0.18126 | 207 ft | 14 kts | 168° |
| 2026-05-05 10:39 | 51.15249 | -0.18099 | 204 ft | 12 kts | 171° |
| 2026-05-05 10:39 | 51.15200 | -0.18175 | 211 ft | 13 kts | 259° |
| 2026-05-05 10:39 | 51.15179 | -0.18362 | 205 ft | 18 kts | 255° |
| 2026-05-05 10:40 | 51.15156 | -0.18545 | 206 ft | 16 kts | 257° |
| 2026-05-05 10:40 | 51.15132 | -0.18715 | 203 ft | 15 kts | 257° |
| 2026-05-05 10:40 | 51.15110 | -0.18874 | 208 ft | 14 kts | 257° |
| 2026-05-05 10:40 | 51.15088 | -0.19039 | 213 ft | 21 kts | 258° |
| 2026-05-05 10:41 | 51.15049 | -0.19315 | 207 ft | 27 kts | 258° |
| 2026-05-05 10:41 | 51.15010 | -0.19606 | 209 ft | 27 kts | 258° |
| 2026-05-05 10:41 | 51.14967 | -0.19912 | 208 ft | 29 kts | 258° |
| 2026-05-05 10:41 | 51.14922 | -0.20239 | 206 ft | 31 kts | 257° |
| 2026-05-05 10:42 | 51.14829 | -0.20920 | 210 ft | 29 kts | 257° |
| 2026-05-05 10:42 | 51.14783 | -0.21184 | 211 ft | 20 kts | 253° |
| 2026-05-05 10:42 | 51.14745 | -0.21383 | 209 ft | 17 kts | 224° |
| 2026-05-05 10:43 | 51.14655 | -0.21352 | 216 ft | 13 kts | 142° |
| 2026-05-05 10:43 | 51.14573 | -0.21308 | 208 ft | 12 kts | 156° |
| 2026-05-05 10:43 | 51.14526 | -0.21205 | 203 ft | 12 kts | 115° |
| 2026-05-05 10:43 | 51.14524 | -0.21140 | 203 ft | 0 kts | 78° |
| 2026-05-05 10:44 | 51.14524 | -0.21139 | 203 ft | 0 kts | 78° |
| 2026-05-05 10:44 | 51.14550 | -0.20954 | 206 ft | 52 kts | 77° |
| 2026-05-05 10:44 | 51.14680 | -0.20016 | 207 ft | 119 kts | 78° |
| 2026-05-05 10:45 | 51.14887 | -0.18494 | 383 ft | 155 kts | 75° |
| 2026-05-05 10:45 | 51.15114 | -0.16782 | 1124 ft | 157 kts | 73° |
| 2026-05-05 10:45 | 51.15338 | -0.15067 | 1894 ft | 163 kts | 73° |
| 2026-05-05 10:45 | 51.15607 | -0.13287 | 2476 ft | 170 kts | 72° |
| 2026-05-05 10:46 | 51.15840 | -0.11626 | 2834 ft | 188 kts | 74° |
| 2026-05-05 10:46 | 51.16145 | -0.09426 | 3172 ft | 213 kts | 74° |
| 2026-05-05 10:46 | 51.16502 | -0.06937 | 3481 ft | 246 kts | 75° |
| 2026-05-05 10:46 | 51.16880 | -0.04222 | 4375 ft | 253 kts | 76° |
| 2026-05-05 10:47 | 51.16973 | -0.01401 | 5327 ft | 260 kts | 91° |
| 2026-05-05 10:47 | 51.16881 | 0.01540 | 5986 ft | 272 kts | 92° |
| 2026-05-05 10:47 | 51.16795 | 0.04527 | 7023 ft | 271 kts | 91° |
| 2026-05-05 10:47 | 51.16710 | 0.07525 | 8024 ft | 275 kts | 91° |
| 2026-05-05 10:48 | 51.16643 | 0.10623 | 8854 ft | 283 kts | 91° |
| 2026-05-05 10:48 | 51.16587 | 0.13743 | 9750 ft | 288 kts | 91° |
| 2026-05-05 10:48 | 51.16544 | 0.16615 | 10534 ft | 292 kts | 90° |
| 2026-05-05 10:48 | 51.16510 | 0.19868 | 11431 ft | 294 kts | 89° |
| 2026-05-05 10:49 | 51.16513 | 0.23134 | 12333 ft | 296 kts | 89° |
| 2026-05-05 10:49 | 51.16532 | 0.26424 | 13219 ft | 299 kts | 88° |
| 2026-05-05 10:49 | 51.16553 | 0.29761 | 14084 ft | 302 kts | 89° |
| 2026-05-05 10:49 | 51.16570 | 0.33121 | 14811 ft | 306 kts | 89° |
| 2026-05-05 10:50 | 51.16578 | 0.36537 | 15498 ft | 312 kts | 90° |
| 2026-05-05 10:50 | 51.16549 | 0.40106 | 15697 ft | 334 kts | 91° |
| 2026-05-05 10:50 | 51.16477 | 0.43948 | 15836 ft | 357 kts | 92° |
| 2026-05-05 10:50 | 51.16378 | 0.47992 | 16157 ft | 371 kts | 92° |
| 2026-05-05 10:51 | 51.16268 | 0.52135 | 16769 ft | 376 kts | 92° |
| 2026-05-05 10:51 | 51.16158 | 0.56307 | 17414 ft | 380 kts | 92° |
| 2026-05-05 10:51 | 51.16051 | 0.60579 | 18036 ft | 384 kts | 93° |
| 2026-05-05 10:51 | 51.15949 | 0.64829 | 18633 ft | 387 kts | 93° |
| 2026-05-05 10:52 | 51.15848 | 0.69123 | 19159 ft | 391 kts | 93° |
| 2026-05-05 10:52 | 51.15744 | 0.73467 | 19678 ft | 394 kts | 92° |
| 2026-05-05 10:52 | 51.15637 | 0.77855 | 20229 ft | 397 kts | 94° |
| 2026-05-05 10:52 | 51.15528 | 0.82200 | 20743 ft | 400 kts | 94° |
| 2026-05-05 10:53 | 51.15414 | 0.86638 | 21246 ft | 403 kts | 95° |
| 2026-05-05 10:53 | 51.15296 | 0.91114 | 21754 ft | 406 kts | 94° |
| 2026-05-05 10:53 | 51.15177 | 0.95616 | 22203 ft | 409 kts | 95° |
| 2026-05-05 10:53 | 51.15056 | 1.00180 | 22703 ft | 413 kts | 94° |
| 2026-05-05 10:54 | 51.14933 | 1.04771 | 23201 ft | 416 kts | 94° |
| 2026-05-05 10:54 | 51.14807 | 1.09382 | 23652 ft | 419 kts | 94° |
| 2026-05-05 10:54 | 51.14680 | 1.14031 | 24054 ft | 422 kts | 95° |
| 2026-05-05 10:54 | 51.14550 | 1.18733 | 24446 ft | 425 kts | 95° |
| 2026-05-05 10:55 | 51.14416 | 1.23444 | 24828 ft | 428 kts | 94° |
| 2026-05-05 10:55 | 51.14278 | 1.28194 | 25209 ft | 431 kts | 95° |
| 2026-05-05 10:55 | 51.14138 | 1.32976 | 25586 ft | 434 kts | 95° |
| 2026-05-05 10:55 | 51.13995 | 1.37785 | 25963 ft | 436 kts | 95° |
| 2026-05-05 10:56 | 51.13849 | 1.42640 | 26332 ft | 439 kts | 95° |
| 2026-05-05 10:56 | 51.13698 | 1.47503 | 26713 ft | 442 kts | 95° |
| 2026-05-05 10:56 | 51.13545 | 1.52413 | 27077 ft | 444 kts | 95° |
| 2026-05-05 10:56 | 51.13390 | 1.57331 | 27430 ft | 447 kts | 95° |
| 2026-05-05 10:57 | 51.13231 | 1.62299 | 27786 ft | 449 kts | 95° |
| 2026-05-05 10:57 | 51.13069 | 1.67282 | 28107 ft | 452 kts | 96° |
| 2026-05-05 10:57 | 51.12906 | 1.72222 | 28428 ft | 454 kts | 95° |
| 2026-05-05 10:57 | 51.12739 | 1.77268 | 28750 ft | 457 kts | 95° |
| 2026-05-05 10:58 | 51.12569 | 1.82341 | 29068 ft | 459 kts | 96° |
| 2026-05-05 10:58 | 51.12396 | 1.87422 | 29389 ft | 461 kts | 95° |
| 2026-05-05 10:58 | 51.12217 | 1.92532 | 29648 ft | 464 kts | 95° |
| 2026-05-05 10:58 | 51.12034 | 1.97680 | 29949 ft | 467 kts | 95° |
| 2026-05-05 10:59 | 51.11910 | 2.01162 | 30182 ft | 467 kts | 95° |
| 2026-05-05 10:59 | 51.11730 | 2.06253 | 30547 ft | 466 kts | 95° |
| 2026-05-05 10:59 | 51.11546 | 2.11412 | 30904 ft | 466 kts | 95° |
| 2026-05-05 10:59 | 51.11364 | 2.16555 | 31257 ft | 466 kts | 95° |
| 2026-05-05 11:00 | 51.11179 | 2.21708 | 31609 ft | 466 kts | 95° |
| 2026-05-05 11:00 | 51.10989 | 2.26856 | 31973 ft | 466 kts | 96° |
| 2026-05-05 11:00 | 51.10795 | 2.32011 | 32300 ft | 466 kts | 96° |
| 2026-05-05 11:00 | 51.10598 | 2.37144 | 32647 ft | 466 kts | 96° |
| 2026-05-05 11:01 | 51.10395 | 2.42303 | 32983 ft | 466 kts | 96° |
| 2026-05-05 11:01 | 51.10190 | 2.47449 | 33328 ft | 466 kts | 96° |
| 2026-05-05 11:01 | 51.09983 | 2.52578 | 33702 ft | 466 kts | 96° |
| 2026-05-05 11:01 | 51.09773 | 2.57742 | 34050 ft | 465 kts | 96° |
| 2026-05-05 11:02 | 51.09544 | 2.62869 | 34353 ft | 464 kts | 99° |
| 2026-05-05 11:02 | 51.08975 | 2.67898 | 34650 ft | 460 kts | 108° |
| 2026-05-05 11:02 | 51.08096 | 2.72785 | 34876 ft | 460 kts | 109° |
| 2026-05-05 11:03 | 51.06328 | 2.82506 | 34945 ft | 460 kts | 109° |
| 2026-05-05 11:03 | 51.04556 | 2.92275 | 34937 ft | 459 kts | 109° |
| 2026-05-05 11:04 | 51.02776 | 3.02009 | 34933 ft | 459 kts | 109° |
| 2026-05-05 11:04 | 51.00997 | 3.11743 | 34930 ft | 459 kts | 109° |
| 2026-05-05 11:05 | 50.99203 | 3.21463 | 34937 ft | 459 kts | 110° |
| 2026-05-05 11:05 | 50.97397 | 3.31170 | 34906 ft | 458 kts | 110° |
| 2026-05-05 11:06 | 50.95583 | 3.40860 | 34923 ft | 458 kts | 110° |
| 2026-05-05 11:06 | 50.93765 | 3.50522 | 34918 ft | 457 kts | 110° |
| 2026-05-05 11:07 | 50.91939 | 3.60169 | 34922 ft | 457 kts | 110° |
| 2026-05-05 11:07 | 50.90120 | 3.69742 | 34929 ft | 457 kts | 110° |
| 2026-05-05 11:08 | 50.88282 | 3.79392 | 34904 ft | 457 kts | 111° |
| 2026-05-05 11:08 | 50.86449 | 3.88992 | 34900 ft | 453 kts | 111° |
| 2026-05-05 11:09 | 50.84630 | 3.98394 | 34915 ft | 456 kts | 111° |
| 2026-05-05 11:09 | 50.82779 | 4.07945 | 34911 ft | 456 kts | 111° |
| 2026-05-05 11:10 | 50.80913 | 4.17531 | 34908 ft | 456 kts | 111° |
| 2026-05-05 11:10 | 50.79033 | 4.27123 | 34910 ft | 455 kts | 111° |
| 2026-05-05 11:11 | 50.77176 | 4.36603 | 34929 ft | 454 kts | 111° |
| 2026-05-05 11:11 | 50.75306 | 4.46089 | 34933 ft | 453 kts | 112° |
| 2026-05-05 11:12 | 50.73426 | 4.55556 | 34920 ft | 452 kts | 112° |
| 2026-05-05 11:12 | 50.71540 | 4.65033 | 34913 ft | 451 kts | 112° |
| 2026-05-05 11:13 | 50.69664 | 4.74413 | 34896 ft | 451 kts | 112° |
| 2026-05-05 11:13 | 50.67760 | 4.83848 | 34897 ft | 451 kts | 112° |
| 2026-05-05 11:14 | 50.65844 | 4.93269 | 34896 ft | 451 kts | 112° |
| 2026-05-05 11:14 | 50.63930 | 5.02597 | 34900 ft | 451 kts | 113° |
| 2026-05-05 11:15 | 50.61983 | 5.12013 | 34889 ft | 451 kts | 113° |
| 2026-05-05 11:15 | 50.60042 | 5.21415 | 34878 ft | 451 kts | 113° |
| 2026-05-05 11:16 | 50.58103 | 5.30808 | 34880 ft | 451 kts | 113° |
| 2026-05-05 11:16 | 50.56257 | 5.39656 | 34870 ft | 451 kts | 113° |
| 2026-05-05 11:17 | 50.54296 | 5.48981 | 34871 ft | 451 kts | 113° |
| 2026-05-05 11:17 | 50.52320 | 5.58354 | 34854 ft | 451 kts | 113° |
| 2026-05-05 11:18 | 50.50386 | 5.67744 | 34852 ft | 452 kts | 112° |
| 2026-05-05 11:18 | 50.48634 | 5.77202 | 34854 ft | 453 kts | 111° |
| 2026-05-05 11:19 | 50.46914 | 5.86716 | 34861 ft | 453 kts | 111° |
| 2026-05-05 11:19 | 50.45146 | 5.96201 | 34859 ft | 452 kts | 111° |
| 2026-05-05 11:20 | 50.43348 | 6.05651 | 34834 ft | 452 kts | 112° |
| 2026-05-05 11:20 | 50.41546 | 6.15052 | 34790 ft | 453 kts | 112° |
| 2026-05-05 11:21 | 50.39727 | 6.24515 | 34349 ft | 453 kts | 112° |
| 2026-05-05 11:21 | 50.38816 | 6.29247 | 33513 ft | 454 kts | 112° |
| 2026-05-05 11:21 | 50.37901 | 6.33996 | 32630 ft | 456 kts | 112° |
| 2026-05-05 11:21 | 50.36987 | 6.38748 | 31726 ft | 458 kts | 110° |
| 2026-05-05 11:22 | 50.36301 | 6.43638 | 30824 ft | 464 kts | 102° |
| 2026-05-05 11:22 | 50.35977 | 6.48698 | 29919 ft | 467 kts | 99° |
| 2026-05-05 11:22 | 50.35676 | 6.53764 | 28875 ft | 469 kts | 99° |
| 2026-05-05 11:22 | 50.35360 | 6.58857 | 27838 ft | 470 kts | 99° |
| 2026-05-05 11:23 | 50.35041 | 6.63858 | 27105 ft | 464 kts | 99° |
| 2026-05-05 11:23 | 50.34717 | 6.68851 | 26394 ft | 458 kts | 99° |
| 2026-05-05 11:23 | 50.34394 | 6.73773 | 25681 ft | 452 kts | 99° |
| 2026-05-05 11:23 | 50.34074 | 6.78638 | 25006 ft | 446 kts | 98° |
| 2026-05-05 11:24 | 50.33706 | 6.83416 | 24348 ft | 439 kts | 103° |
| 2026-05-05 11:24 | 50.32956 | 6.87981 | 23713 ft | 431 kts | 111° |
| 2026-05-05 11:24 | 50.31808 | 6.92265 | 23015 ft | 424 kts | 117° |
| 2026-05-05 11:24 | 50.30576 | 6.96403 | 22238 ft | 421 kts | 117° |
| 2026-05-05 11:25 | 50.29343 | 7.00529 | 21528 ft | 418 kts | 117° |
| 2026-05-05 11:25 | 50.28116 | 7.04636 | 20859 ft | 414 kts | 117° |
| 2026-05-05 11:25 | 50.26901 | 7.08706 | 20182 ft | 411 kts | 117° |
| 2026-05-05 11:25 | 50.25699 | 7.12730 | 19556 ft | 407 kts | 117° |
| 2026-05-05 11:26 | 50.24502 | 7.16724 | 18928 ft | 404 kts | 117° |
| 2026-05-05 11:26 | 50.23312 | 7.20681 | 18322 ft | 401 kts | 117° |
| 2026-05-05 11:26 | 50.22138 | 7.24573 | 17677 ft | 398 kts | 117° |
| 2026-05-05 11:26 | 50.20965 | 7.28455 | 17032 ft | 394 kts | 117° |
| 2026-05-05 11:27 | 50.19802 | 7.32314 | 16420 ft | 390 kts | 117° |
| 2026-05-05 11:27 | 50.18726 | 7.36191 | 15820 ft | 388 kts | 114° |
| 2026-05-05 11:27 | 50.17765 | 7.40085 | 15278 ft | 384 kts | 112° |
| 2026-05-05 11:27 | 50.16878 | 7.43942 | 14730 ft | 381 kts | 111° |
| 2026-05-05 11:28 | 50.16008 | 7.47807 | 14190 ft | 378 kts | 111° |
| 2026-05-05 11:28 | 50.15140 | 7.51638 | 13645 ft | 375 kts | 111° |
| 2026-05-05 11:28 | 50.14286 | 7.55324 | 13160 ft | 373 kts | 111° |
| 2026-05-05 11:28 | 50.13427 | 7.58942 | 12679 ft | 370 kts | 112° |
| 2026-05-05 11:29 | 50.12536 | 7.62646 | 12165 ft | 367 kts | 112° |
| 2026-05-05 11:29 | 50.11642 | 7.66328 | 11612 ft | 363 kts | 113° |
| 2026-05-05 11:29 | 50.10503 | 7.69822 | 11012 ft | 358 kts | 124° |
| 2026-05-05 11:29 | 50.09105 | 7.72995 | 10427 ft | 354 kts | 126° |
| 2026-05-05 11:30 | 50.07700 | 7.76140 | 9825 ft | 352 kts | 126° |
| 2026-05-05 11:30 | 50.06335 | 7.79206 | 9613 ft | 337 kts | 126° |
| 2026-05-05 11:30 | 50.05038 | 7.82121 | 9476 ft | 322 kts | 126° |
| 2026-05-05 11:30 | 50.03793 | 7.84923 | 9340 ft | 308 kts | 126° |
| 2026-05-05 11:31 | 50.02596 | 7.87605 | 9210 ft | 296 kts | 126° |
| 2026-05-05 11:31 | 50.01444 | 7.90184 | 9086 ft | 285 kts | 126° |
| 2026-05-05 11:31 | 50.00332 | 7.92670 | 8851 ft | 281 kts | 126° |
| 2026-05-05 11:31 | 49.99240 | 7.95171 | 8491 ft | 279 kts | 122° |
| 2026-05-05 11:32 | 49.98288 | 7.97804 | 8105 ft | 278 kts | 120° |
| 2026-05-05 11:32 | 49.97352 | 8.00423 | 7991 ft | 277 kts | 120° |
| 2026-05-05 11:32 | 49.96412 | 8.03043 | 7924 ft | 278 kts | 120° |
| 2026-05-05 11:32 | 49.95472 | 8.05655 | 7785 ft | 278 kts | 121° |
| 2026-05-05 11:33 | 49.94529 | 8.08275 | 7672 ft | 277 kts | 121° |
| 2026-05-05 11:33 | 49.93596 | 8.10862 | 7534 ft | 277 kts | 121° |
| 2026-05-05 11:33 | 49.92655 | 8.13461 | 7421 ft | 276 kts | 121° |
| 2026-05-05 11:33 | 49.91716 | 8.16057 | 7295 ft | 276 kts | 121° |
| 2026-05-05 11:34 | 49.90779 | 8.18646 | 7150 ft | 275 kts | 121° |
| 2026-05-05 11:34 | 49.89853 | 8.21219 | 7035 ft | 276 kts | 119° |
| 2026-05-05 11:34 | 49.89123 | 8.23971 | 6909 ft | 277 kts | 109° |
| 2026-05-05 11:34 | 49.88723 | 8.26885 | 6785 ft | 278 kts | 98° |
| 2026-05-05 11:35 | 49.88663 | 8.29866 | 6660 ft | 279 kts | 88° |
| 2026-05-05 11:35 | 49.88949 | 8.32829 | 6539 ft | 280 kts | 77° |
| 2026-05-05 11:35 | 49.89566 | 8.35703 | 6419 ft | 280 kts | 70° |
| 2026-05-05 11:35 | 49.90258 | 8.38526 | 6299 ft | 280 kts | 70° |
| 2026-05-05 11:36 | 49.90915 | 8.41235 | 6179 ft | 279 kts | 71° |
| 2026-05-05 11:36 | 49.91584 | 8.44016 | 6054 ft | 279 kts | 71° |
| 2026-05-05 11:36 | 49.92259 | 8.46832 | 5967 ft | 278 kts | 71° |
| 2026-05-05 11:36 | 49.92935 | 8.49649 | 5984 ft | 279 kts | 71° |
| 2026-05-05 11:37 | 49.93602 | 8.52422 | 5975 ft | 279 kts | 71° |
| 2026-05-05 11:37 | 49.94281 | 8.55244 | 5974 ft | 279 kts | 71° |
| 2026-05-05 11:37 | 49.94957 | 8.58067 | 5989 ft | 279 kts | 71° |
| 2026-05-05 11:37 | 49.95634 | 8.60891 | 5986 ft | 279 kts | 70° |
| 2026-05-05 11:38 | 49.96307 | 8.63706 | 5974 ft | 278 kts | 71° |
| 2026-05-05 11:38 | 49.96973 | 8.66504 | 5976 ft | 278 kts | 71° |
| 2026-05-05 11:38 | 49.97645 | 8.69326 | 5977 ft | 279 kts | 71° |
| 2026-05-05 11:38 | 49.98318 | 8.72148 | 5987 ft | 279 kts | 71° |
| 2026-05-05 11:39 | 49.98990 | 8.74978 | 5920 ft | 279 kts | 71° |
| 2026-05-05 11:39 | 49.99651 | 8.77761 | 5793 ft | 278 kts | 71° |
| 2026-05-05 11:39 | 50.00320 | 8.80579 | 5665 ft | 277 kts | 71° |
| 2026-05-05 11:39 | 50.00963 | 8.83292 | 5549 ft | 275 kts | 71° |
| 2026-05-05 11:40 | 50.01616 | 8.86061 | 5468 ft | 275 kts | 71° |
| 2026-05-05 11:40 | 50.02277 | 8.88869 | 5332 ft | 276 kts | 71° |
| 2026-05-05 11:40 | 50.02936 | 8.91668 | 5219 ft | 275 kts | 71° |
| 2026-05-05 11:40 | 50.03596 | 8.94462 | 5092 ft | 276 kts | 71° |
| 2026-05-05 11:41 | 50.04256 | 8.97249 | 4974 ft | 274 kts | 71° |
| 2026-05-05 11:41 | 50.04904 | 8.99986 | 4986 ft | 275 kts | 70° |
| 2026-05-05 11:41 | 50.05562 | 9.02784 | 4985 ft | 275 kts | 71° |
| 2026-05-05 11:41 | 50.06214 | 9.05566 | 4988 ft | 274 kts | 71° |
| 2026-05-05 11:42 | 50.06863 | 9.08352 | 4989 ft | 274 kts | 71° |
| 2026-05-05 11:42 | 50.07486 | 9.11036 | 4988 ft | 274 kts | 71° |
| 2026-05-05 11:42 | 50.08337 | 9.13683 | 4984 ft | 275 kts | 51° |
| 2026-05-05 11:42 | 50.09843 | 9.15477 | 4983 ft | 275 kts | 22° |
| 2026-05-05 11:43 | 50.11709 | 9.15977 | 4981 ft | 275 kts | 354° |
| 2026-05-05 11:43 | 50.13506 | 9.15064 | 4989 ft | 273 kts | 326° |
| 2026-05-05 11:43 | 50.14447 | 9.13775 | 4987 ft | 271 kts | 307° |
| 2026-05-05 11:43 | 50.15470 | 9.10278 | 4987 ft | 269 kts | 285° |
| 2026-05-05 11:44 | 50.15822 | 9.08390 | 4994 ft | 270 kts | 284° |
| 2026-05-05 11:44 | 50.16145 | 9.05590 | 4985 ft | 253 kts | 268° |
| 2026-05-05 11:44 | 50.15773 | 9.02189 | 4982 ft | 230 kts | 259° |
| 2026-05-05 11:44 | 50.15588 | 9.00544 | 4984 ft | 231 kts | 256° |
| 2026-05-05 11:45 | 50.15149 | 8.98121 | 4981 ft | 234 kts | 250° |
| 2026-05-05 11:45 | 50.14603 | 8.95730 | 4983 ft | 235 kts | 248° |
| 2026-05-05 11:45 | 50.14045 | 8.93369 | 4984 ft | 234 kts | 249° |
| 2026-05-05 11:45 | 50.13501 | 8.91053 | 4982 ft | 222 kts | 249° |
| 2026-05-05 11:46 | 50.12969 | 8.88787 | 4987 ft | 224 kts | 249° |
| 2026-05-05 11:46 | 50.12436 | 8.86523 | 4946 ft | 224 kts | 249° |
| 2026-05-05 11:46 | 50.11905 | 8.84266 | 4713 ft | 223 kts | 248° |
| 2026-05-05 11:46 | 50.11371 | 8.81994 | 4421 ft | 222 kts | 248° |
| 2026-05-05 11:47 | 50.10850 | 8.79787 | 4114 ft | 222 kts | 249° |
| 2026-05-05 11:47 | 50.10316 | 8.77526 | 3795 ft | 222 kts | 249° |
| 2026-05-05 11:47 | 50.09785 | 8.75276 | 3479 ft | 222 kts | 249° |
| 2026-05-05 11:47 | 50.09250 | 8.73014 | 3166 ft | 221 kts | 249° |
| 2026-05-05 11:48 | 50.08188 | 8.68540 | 2535 ft | 223 kts | 249° |
| 2026-05-05 11:48 | 50.07655 | 8.66277 | 2229 ft | 223 kts | 249° |
| 2026-05-05 11:48 | 50.07130 | 8.64042 | 1952 ft | 214 kts | 249° |
| 2026-05-05 11:49 | 50.06637 | 8.61974 | 1590 ft | 198 kts | 249° |
| 2026-05-05 11:49 | 50.06174 | 8.60045 | 1328 ft | 180 kts | 249° |
| 2026-05-05 11:49 | 50.05771 | 8.58350 | 1104 ft | 158 kts | 249° |
| 2026-05-05 11:49 | 50.05398 | 8.56813 | 862 ft | 146 kts | 250° |
| 2026-05-05 11:50 | 50.05056 | 8.55363 | 671 ft | 140 kts | 250° |
| 2026-05-05 11:50 | 50.04723 | 8.53961 | 483 ft | 138 kts | 250° |
| 2026-05-05 11:50 | 50.04390 | 8.52577 | 360 ft | 130 kts | 250° |
| 2026-05-05 11:50 | 50.04104 | 8.51390 | 330 ft | 94 kts | 250° |
| 2026-05-05 11:51 | 50.03982 | 8.50858 | 325 ft | 25 kts | 250° |
| 2026-05-05 11:51 | 50.03913 | 8.50584 | 323 ft | 28 kts | 246° |
| 2026-05-05 11:51 | 50.03825 | 8.50367 | 320 ft | 22 kts | 229° |
| 2026-05-05 11:51 | 50.03718 | 8.50221 | 319 ft | 18 kts | 220° |
| 2026-05-05 11:52 | 50.03669 | 8.50183 | 322 ft | 4 kts | 186° |
| 2026-05-05 11:52 | 50.03644 | 8.50189 | 323 ft | 12 kts | 161° |
| 2026-05-05 11:52 | 50.03631 | 8.50301 | 325 ft | 11 kts | 68° |
| 2026-05-05 11:52 | 50.03673 | 8.50473 | 326 ft | 22 kts | 72° |
| 2026-05-05 11:53 | 50.03727 | 8.50700 | 330 ft | 23 kts | 70° |
| 2026-05-05 11:53 | 50.03782 | 8.50928 | 332 ft | 24 kts | 70° |
| 2026-05-05 11:53 | 50.03844 | 8.51183 | 333 ft | 26 kts | 69° |
| 2026-05-05 11:53 | 50.03910 | 8.51460 | 331 ft | 28 kts | 70° |
| 2026-05-05 11:54 | 50.03979 | 8.51749 | 335 ft | 30 kts | 69° |
| 2026-05-05 11:54 | 50.04053 | 8.52056 | 336 ft | 30 kts | 70° |
| 2026-05-05 11:54 | 50.04125 | 8.52360 | 353 ft | 30 kts | 69° |
| 2026-05-05 11:54 | 50.04197 | 8.52662 | 351 ft | 30 kts | 70° |
| 2026-05-05 11:55 | 50.04270 | 8.52963 | 360 ft | 30 kts | 69° |
| 2026-05-05 11:55 | 50.04340 | 8.53258 | 364 ft | 27 kts | 70° |
| 2026-05-05 11:55 | 50.04396 | 8.53522 | 375 ft | 24 kts | 81° |
| 2026-05-05 11:55 | 50.04414 | 8.53796 | 375 ft | 26 kts | 83° |
| 2026-05-05 11:56 | 50.04434 | 8.54091 | 375 ft | 28 kts | 84° |
| 2026-05-05 11:56 | 50.04454 | 8.54395 | 372 ft | 27 kts | 86° |
| 2026-05-05 11:56 | 50.04394 | 8.54675 | 363 ft | 24 kts | 129° |
| 2026-05-05 11:56 | 50.04318 | 8.54767 | 357 ft | 0 kts | 153° |
| 2026-05-05 11:58 | 50.04310 | 8.54772 | 359 ft | 7 kts | 155° |
| 2026-05-05 11:58 | 50.04204 | 8.54834 | 357 ft | 20 kts | 160° |
| 2026-05-05 11:58 | 50.04058 | 8.54916 | 355 ft | 23 kts | 159° |
| 2026-05-05 11:59 | 50.03908 | 8.55006 | 355 ft | 24 kts | 159° |
| 2026-05-05 11:59 | 50.03863 | 8.55173 | 349 ft | 19 kts | 75° |
| 2026-05-05 11:59 | 50.03908 | 8.55361 | 349 ft | 18 kts | 70° |
| 2026-05-05 11:59 | 50.03950 | 8.55536 | 352 ft | 17 kts | 69° |
| 2026-05-05 12:00 | 50.03990 | 8.55700 | 356 ft | 15 kts | 69° |
| 2026-05-05 12:00 | 50.04025 | 8.55848 | 359 ft | 14 kts | 69° |
| 2026-05-05 12:00 | 50.04056 | 8.55977 | 357 ft | 12 kts | 70° |
| 2026-05-05 12:00 | 50.04101 | 8.56168 | 359 ft | 26 kts | 69° |
| 2026-05-05 12:01 | 50.04165 | 8.56439 | 357 ft | 28 kts | 69° |
| 2026-05-05 12:01 | 50.04228 | 8.56702 | 363 ft | 22 kts | 69° |
| 2026-05-05 12:01 | 50.04305 | 8.56814 | 362 ft | 14 kts | 13° |
| 2026-05-05 12:01 | 50.04407 | 8.56845 | 363 ft | 19 kts | 8° |
| 2026-05-05 12:02 | 50.04553 | 8.56890 | 359 ft | 19 kts | 13° |
| 2026-05-05 12:02 | 50.04665 | 8.56942 | 361 ft | 15 kts | 26° |
| 2026-05-05 12:02 | 50.04742 | 8.56997 | 363 ft | 9 kts | 24° |
| 2026-05-05 12:02 | 50.04790 | 8.56973 | 358 ft | 7 kts | 292° |
| 2026-05-05 12:03 | 50.04800 | 8.56924 | 356 ft | 1 kts | 296° |
| 2026-05-05 12:03 | 50.04800 | 8.56921 | 356 ft | 0 kts | 296° |
| 2026-05-05 12:03 | 50.04801 | 8.56921 | 356 ft | 0 kts | 296° |